Airfield :







YOU CAN JOIN US ON...

 
LOGIN :

Register | Disclaimer

   EN    FR    IT 

 









Legend :    VFR   Marginal VFR   IFR   Intensive IFR   Very Intensive IFR
Visi :
Ceiling :
>= 8 km
>= 3000ft
5 to 8 km
1000 to 3000 ft
1500m to 5 km
500 to 1000 ft
800 to 1500m
200 to 500 ft
< 800m
< 200 ft
Symbols :   Thunderstorms  Fog  Heavy snow  Heavy precipitations  Wind > 20 kt






- Airport Elevation : 1074 ft


KHIE - Mount Washington Regional

CURRENT METAR :
  • 061552Z AUTO VRB04KT 10SM CLR 26/09 A3011 RMK AO2 SLP192 T02560089

EXPIRED METARs :
  • 061452Z AUTO 00000KT 10SM CLR 25/11 A3011 RMK AO2 SLP194 T02500111 51006
  • 061352Z AUTO 03004KT 10SM CLR 23/12 A3010 RMK AO2 SLP191 T02280117

TAF KHIE
Valid from the 06 at 12:00 until the 07 at 12:00 UTC


061132Z 0612/0712 01005KT P6SM SKC
FM061700 35006KT P6SM FEW070
FM070200 00000KT P6SM SKC
FM070700 VRB03KT 5SM BR FEW001
KZBW FIR / North America



MET'MAP, your aeronautical weather chart ! - Copyright ORBIFLY December 2007 - Disclaimer

ORBIFLY MET'MAP TEAM :

Programming & Development : Alexandra Zaïnal
Concept & original design : Baudouin d'Aumeries
Assistance for programming : Marc-Olivier Méhu
Technical & hardware support : Manuel Goepfert

Contact : metmap@orbifly.com




SOURCES & CREDITS :

   NOAA